메인 페이지
METAR-TAF:

METAR-TAF

공항 :

Reading Regional Airport (Carl A. Spaatz Field)

레딩, 펜실베이니아, 미국

위도: 40-22-24N, 경도: 075-57-34W, 고도: 105m

현재 날씨관측

예보는 37분 전, 22:54시(UTC)에 발표되었습니다.
6kt
온도 8°C
습도 71%
기압 1013 hPa
시정: 16.1km
고도 2200ft 상공 흐림

METAR: KRDG 312254Z 09006KT 10SM OVC022 08/03 A2991 RMK AO2 SLP134 T00780033

시각: 19:31 (23:31 UTC)

예보

예보는 6 시간 2분 전, 17:29시(UTC)에 발표되었습니다.
예보 대상 시간: 31일 18시부터 01일 18시까지 (UTC)
8kt
시정: 10km
고도 1500ft 상공 흐림
31일 2300시부터 (UTC)
6kt
시정: 10km
고도 2500ft 상공 구름 많음
고도 4500ft 상공 흐림
01일 0400시부터 (UTC)
동북동5kt
시정: 10km
고도 3000ft 상공 흐림
01일 1700시부터 (UTC)
6kt
시정: 10km
고도 3500ft 상공 구름 많음

TAF: KRDG 311729Z 3118/0118 10008KT P6SM OVC015 FM312300 10006KT P6SM BKN025 OVC045 FM010400 06005KT P6SM OVC030 FM011700 01006KT P6SM BKN035

4,000개 이상의 공항 관측 자료 및 예보 (METAR 및 TAF 보고).

지도상에서 검색 가능한 기상관측소가 노란 점과 빨간 점으로 표시되어 있습니다.

기상관측소 명을 보려면 표시 위로 마우스를 이동하세요.

날씨 관측과 예보를 보려면 클릭하세요.

지도 변경 : 확대하려면 엑스 표시가 있는 녹색 버튼, 축소하려면 빼기 표시가 있는 녹색 버튼, 다음 페이지의 지도를 보려면 녹색 화살표를 클릭하세요.


METAR-TAF: